Time;durP1;ratioP1;P1;durP2;ratioP2;P2;SDS_P1;SDS_P2;PMS_P1;PMS_P2;Temp;Humidity;BMP_temperature;BMP_pressure;BME280_temperature;BME280_humidity;BME280_pressure;Samples;Min_cycle;Max_cycle;Signal;HPM_P1;HPM_P2
2022/01/31 00:00:10;;;;;;;19.58;5.95;;;;;;;4.42;80.55;100052.28;4978740;28;20065;-64
2022/01/31 00:02:36;;;;;;;12.27;6.07;;;;;;;4.41;80.57;100042.81;4978874;28;20375;-63
2022/01/31 00:05:03;;;;;;;24.25;6.35;;;;;;;4.40;80.47;100038.50;4995113;28;20066;-63
2022/01/31 00:07:28;;;;;;;15.43;5.40;;;;;;;4.42;80.22;100028.31;4978952;28;20478;-63
2022/01/31 00:09:56;;;;;;;18.98;5.78;;;;;;;4.43;80.34;100030.06;4995380;28;20498;-64
2022/01/31 00:12:24;;;;;;;18.17;6.45;;;;;;;4.42;80.27;100047.13;4996437;28;20122;-64
2022/01/31 00:14:50;;;;;;;17.48;6.30;;;;;;;4.42;80.57;100046.28;4996454;28;20057;-64
2022/01/31 00:17:17;;;;;;;19.08;5.60;;;;;;;4.41;80.60;100027.41;4995051;28;20045;-64
2022/01/31 00:19:43;;;;;;;21.98;6.13;;;;;;;4.41;80.56;100029.97;4978607;28;20126;-64
2022/01/31 00:22:11;;;;;;;23.52;6.68;;;;;;;4.41;80.73;100009.47;4996421;28;20031;-64
2022/01/31 00:24:40;;;;;;;17.23;5.88;;;;;;;4.41;80.64;100009.47;4978860;28;20038;-64
2022/01/31 00:27:09;;;;;;;18.35;7.60;;;;;;;4.41;80.43;100013.72;4978422;28;20043;-64
2022/01/31 00:29:35;;;;;;;18.02;6.65;;;;;;;4.42;80.02;100010.34;4978563;28;20031;-63
2022/01/31 00:32:01;;;;;;;15.70;5.55;;;;;;;4.41;80.65;100009.47;4995949;28;20068;-64
2022/01/31 00:34:27;;;;;;;15.88;6.38;;;;;;;4.41;80.20;99985.50;4996433;28;20100;-64
2022/01/31 00:36:54;;;;;;;18.60;5.85;;;;;;;4.41;80.60;99967.53;4994836;28;20114;-64
2022/01/31 00:39:19;;;;;;;12.23;5.55;;;;;;;4.39;79.72;99952.06;4996083;28;20528;-63
2022/01/31 00:41:45;;;;;;;10.77;5.30;;;;;;;4.40;80.16;99947.81;4995770;28;20030;-64
2022/01/31 00:46:49;;;;;;;16.67;6.35;;;;;;;4.38;80.21;99916.09;4995722;28;20541;-64
2022/01/31 00:49:27;;;;;;;19.38;5.63;;;;;;;4.38;80.69;99898.13;4996160;28;20409;-64
2022/01/31 00:51:54;;;;;;;21.70;7.15;;;;;;;4.36;79.98;99892.91;4978574;28;20038;-64
2022/01/31 00:54:20;;;;;;;16.13;6.30;;;;;;;4.36;80.47;99889.47;4995995;28;20054;-63
2022/01/31 00:56:46;;;;;;;21.45;6.43;;;;;;;4.37;79.71;99879.25;4994733;28;20069;-63
2022/01/31 00:59:17;;;;;;;17.00;6.05;;;;;;;4.36;80.19;99874.09;4994953;28;20027;-63
2022/01/31 01:01:45;;;;;;;14.95;5.90;;;;;;;4.36;80.18;99853.56;4977628;28;20507;-64
2022/01/31 01:04:11;;;;;;;16.77;5.95;;;;;;;4.36;80.35;99835.59;4995292;28;20038;-64
2022/01/31 01:06:39;;;;;;;14.70;5.28;;;;;;;4.34;79.97;99826.97;4995400;28;20042;-64
2022/01/31 01:09:05;;;;;;;12.90;6.05;;;;;;;4.33;80.16;99825.22;4977747;28;20077;-64
2022/01/31 01:11:31;;;;;;;17.77;5.63;;;;;;;4.33;80.29;99820.06;4994495;28;20398;-64
2022/01/31 01:13:57;;;;;;;15.93;5.40;;;;;;;4.34;79.90;99807.31;4995202;28;20031;-64
2022/01/31 01:16:24;;;;;;;15.10;5.68;;;;;;;4.35;80.46;99795.34;4993878;28;20049;-65
2022/01/31 01:18:53;;;;;;;13.40;5.43;;;;;;;4.34;79.61;99785.91;4994142;28;20042;-64
2022/01/31 01:21:18;;;;;;;21.98;5.88;;;;;;;4.33;80.04;99759.38;4995244;28;20034;-64
2022/01/31 01:23:44;;;;;;;16.80;5.28;;;;;;;4.32;79.74;99760.22;4995052;28;20165;-64
2022/01/31 01:26:20;;;;;;;23.50;5.53;;;;;;;4.32;80.38;99729.41;4995018;28;20038;-65
2022/01/31 01:28:46;;;;;;;15.18;5.28;;;;;;;4.32;80.08;99725.97;4977790;28;20070;-64
2022/01/31 01:31:12;;;;;;;15.90;5.75;;;;;;;4.34;80.22;99729.47;4994748;28;20042;-64
2022/01/31 01:33:40;;;;;;;22.38;5.90;;;;;;;4.34;80.25;99724.31;4994728;28;20069;-64
2022/01/31 01:36:10;;;;;;;16.17;5.43;;;;;;;4.34;80.27;99720.09;4977760;28;20046;-64
2022/01/31 01:38:37;;;;;;;22.25;5.90;;;;;;;4.34;80.24;99714.06;4994849;28;20038;-64
2022/01/31 01:41:06;;;;;;;15.85;6.75;;;;;;;4.32;79.96;99706.31;4977273;28;20125;-64
2022/01/31 01:43:34;;;;;;;17.30;5.60;;;;;;;4.35;79.68;99687.59;4995079;28;20049;-64
2022/01/31 01:46:00;;;;;;;16.60;4.57;;;;;;;4.35;80.12;99679.88;4993559;28;20042;-64
2022/01/31 01:48:28;;;;;;;14.40;5.38;;;;;;;4.35;80.33;99685.91;4993311;28;20041;-64
2022/01/31 01:50:55;;;;;;;15.45;6.13;;;;;;;4.36;80.86;99676.50;4993489;28;20053;-64
2022/01/31 01:53:24;;;;;;;13.05;5.72;;;;;;;4.34;80.49;99667.88;4994594;28;20030;-65
2022/01/31 01:55:53;;;;;;;12.93;6.03;;;;;;;4.36;80.47;99650.84;4993628;28;20383;-65
2022/01/31 01:58:21;;;;;;;15.57;5.45;;;;;;;4.35;80.30;99646.53;4977101;28;20068;-64
2022/01/31 02:01:02;;;;;;;22.23;6.72;;;;;;;4.34;79.58;99643.09;4993572;28;20070;-64
2022/01/31 02:03:29;;;;;;;13.05;5.25;;;;;;;4.35;79.94;99638.84;4992966;28;20042;-64
2022/01/31 02:05:58;;;;;;;21.27;5.45;;;;;;;4.36;79.74;99638.03;4977189;28;20045;-65
2022/01/31 02:08:25;;;;;;;20.02;5.95;;;;;;;4.34;80.46;99612.31;4976920;28;20042;-64
2022/01/31 02:10:51;;;;;;;12.73;5.35;;;;;;;4.34;80.44;99608.88;4993070;28;20061;-64
2022/01/31 02:13:19;;;;;;;25.75;7.18;;;;;;;4.35;80.61;99613.19;4993163;28;20441;-64
2022/01/31 02:15:51;;;;;;;18.88;5.88;;;;;;;4.35;80.48;99611.50;4992915;28;20418;-64
2022/01/31 02:18:20;;;;;;;15.07;5.45;;;;;;;4.36;80.45;99596.97;4993124;28;20049;-65
2022/01/31 02:20:51;;;;;;;19.33;6.43;;;;;;;4.35;80.31;99588.41;4992929;28;20084;-64
2022/01/31 02:23:20;;;;;;;10.43;4.60;;;;;;;4.36;80.57;99594.41;4993081;28;20057;-64
2022/01/31 02:26:04;;;;;;;23.08;6.45;;;;;;;4.37;80.63;99583.31;4993991;28;20041;-64
2022/01/31 02:28:38;;;;;;;15.70;6.00;;;;;;;4.36;80.57;99574.72;4994045;28;20034;-64
2022/01/31 02:31:05;;;;;;;12.40;4.53;;;;;;;4.36;80.76;99563.59;4994200;28;20030;-64
2022/01/31 02:33:31;;;;;;;22.95;5.95;;;;;;;4.37;80.24;99555.09;4993838;28;20378;-64
2022/01/31 02:36:03;;;;;;;21.08;6.03;;;;;;;4.37;80.49;99552.53;4994055;28;20540;-64
2022/01/31 02:38:30;;;;;;;11.80;5.15;;;;;;;4.34;80.63;99527.66;4992507;28;20069;-64
2022/01/31 02:40:56;;;;;;;19.42;6.65;;;;;;;4.36;80.76;99530.25;4992957;28;20034;-64
2022/01/31 02:43:31;;;;;;;17.40;5.93;;;;;;;4.35;80.47;99516.56;4993964;28;20061;-64
2022/01/31 02:45:57;;;;;;;12.52;5.38;;;;;;;4.37;81.21;99516.59;4976490;28;20030;-64
2022/01/31 02:48:32;;;;;;;11.88;6.47;;;;;;;4.36;80.56;99490.06;4977105;28;20110;-64
2022/01/31 02:51:03;;;;;;;15.35;5.63;;;;;;;4.35;80.45;99500.28;4992981;28;20071;-64
2022/01/31 02:53:32;;;;;;;15.85;5.55;;;;;;;4.36;80.64;99502.88;4993809;28;20478;-63
2022/01/31 02:56:01;;;;;;;18.77;5.70;;;;;;;4.37;80.98;99483.25;4992656;28;20069;-63
2022/01/31 02:58:29;;;;;;;16.08;5.30;;;;;;;4.38;80.69;99482.44;4976594;28;20046;-63
2022/01/31 03:00:58;;;;;;;11.93;6.10;;;;;;;4.36;80.75;99466.97;4976374;28;20109;-65
2022/01/31 03:03:24;;;;;;;11.48;5.22;;;;;;;4.37;80.56;99467.84;4976244;28;20042;-63
2022/01/31 03:05:50;;;;;;;11.80;6.07;;;;;;;4.37;80.74;99484.09;4992710;28;20049;-63
2022/01/31 03:08:18;;;;;;;10.40;5.60;;;;;;;4.40;80.88;99501.31;4992480;28;20109;-63
2022/01/31 03:10:46;;;;;;;21.08;6.80;;;;;;;4.40;81.03;99484.22;4993673;28;20042;-65
2022/01/31 03:13:12;;;;;;;14.43;5.40;;;;;;;4.40;81.36;99484.22;4976301;28;20034;-63
2022/01/31 03:15:40;;;;;;;11.82;5.22;;;;;;;4.40;80.71;99481.66;4993556;28;20125;-63
2022/01/31 03:18:07;;;;;;;15.55;6.22;;;;;;;4.38;81.38;99465.31;4976363;28;20034;-63
2022/01/31 03:20:32;;;;;;;12.80;5.03;;;;;;;4.41;81.23;99472.28;4993656;28;20394;-63
2022/01/31 03:22:59;;;;;;;15.27;4.70;;;;;;;4.41;80.65;99475.69;4993667;28;20030;-63
2022/01/31 03:25:27;;;;;;;13.38;6.28;;;;;;;4.43;81.24;99483.47;4993555;28;20535;-63
2022/01/31 03:27:55;;;;;;;7.72;4.97;;;;;;;4.44;81.56;99479.19;4993535;28;20042;-63
2022/01/31 03:30:22;;;;;;;7.88;4.93;;;;;;;4.44;80.81;99472.34;4976663;28;20070;-64
2022/01/31 03:32:51;;;;;;;17.88;6.15;;;;;;;4.44;80.77;99466.34;4976564;28;20034;-63
2022/01/31 03:35:17;;;;;;;13.65;5.70;;;;;;;4.45;81.01;99461.25;4995166;28;20042;-64
2022/01/31 03:37:46;;;;;;;10.82;4.95;;;;;;;4.45;81.26;99457.84;4979599;28;20034;-63
2022/01/31 03:40:12;;;;;;;9.13;6.00;;;;;;;4.45;81.11;99461.25;4996959;28;20049;-63
2022/01/31 03:42:38;;;;;;;12.63;4.38;;;;;;;4.45;81.26;99443.28;4996973;28;20513;-63
2022/01/31 03:45:09;;;;;;;11.82;4.78;;;;;;;4.47;81.29;99458.75;4979824;28;20401;-63
2022/01/31 03:47:36;;;;;;;10.98;5.18;;;;;;;4.48;80.93;99453.66;4996994;28;20038;-63
2022/01/31 03:50:02;;;;;;;7.85;4.18;;;;;;;4.48;81.39;99447.66;4995711;28;20038;-63
2022/01/31 03:52:28;;;;;;;6.93;4.18;;;;;;;4.49;81.10;99457.97;4979275;28;20403;-63
2022/01/31 03:54:56;;;;;;;5.05;4.20;;;;;;;4.47;80.79;99462.19;4996678;28;20042;-63
2022/01/31 03:57:21;;;;;;;7.30;4.50;;;;;;;4.49;81.00;99454.53;4995574;28;20038;-63
2022/01/31 03:59:49;;;;;;;10.90;4.88;;;;;;;4.49;80.99;99464.81;4996833;28;20109;-64
2022/01/31 04:02:17;;;;;;;5.28;3.83;;;;;;;4.48;81.30;99463.91;4995094;28;20493;-63
2022/01/31 04:04:43;;;;;;;7.63;4.05;;;;;;;4.49;81.06;99457.13;4979135;28;20049;-63
2022/01/31 04:07:08;;;;;;;8.00;4.15;;;;;;;4.51;80.90;99456.31;4996473;28;20125;-63
2022/01/31 04:09:34;;;;;;;6.45;4.15;;;;;;;4.51;81.44;99455.47;4996409;28;20042;-65
2022/01/31 04:11:59;;;;;;;5.93;3.90;;;;;;;4.51;81.20;99465.72;4996170;28;20066;-63
2022/01/31 04:14:27;;;;;;;6.88;4.00;;;;;;;4.50;81.13;99461.41;4996669;28;20031;-63
2022/01/31 04:16:56;;;;;;;9.32;4.25;;;;;;;4.50;81.25;99475.09;4995341;28;20038;-63
2022/01/31 04:19:23;;;;;;;5.85;4.40;;;;;;;4.51;80.83;99455.47;4996428;28;20038;-63
2022/01/31 04:21:51;;;;;;;6.93;3.72;;;;;;;4.52;81.20;99457.19;4978800;28;20074;-64
2022/01/31 04:24:23;;;;;;;9.70;4.45;;;;;;;4.52;81.06;99464.88;4978944;28;20432;-63
2022/01/31 04:26:59;;;;;;;4.85;3.60;;;;;;;4.53;81.73;99470.06;4996151;28;20034;-63
2022/01/31 04:29:29;;;;;;;7.38;3.28;;;;;;;4.52;81.24;99463.19;4995268;28;20059;-63
2022/01/31 04:31:55;;;;;;;5.63;3.45;;;;;;;4.52;81.08;99473.47;4995228;28;20054;-63
2022/01/31 04:34:23;;;;;;;4.82;3.75;;;;;;;4.52;81.49;99458.06;4994897;28;20042;-63
2022/01/31 04:36:48;;;;;;;7.60;3.22;;;;;;;4.52;80.97;99452.94;4978568;28;20088;-63
2022/01/31 04:39:18;;;;;;;5.30;3.42;;;;;;;4.54;81.80;99446.16;4994721;28;20476;-64
2022/01/31 04:41:48;;;;;;;9.43;3.40;;;;;;;4.56;81.98;99441.06;4978531;28;20498;-64
2022/01/31 04:44:18;;;;;;;6.18;3.65;;;;;;;4.54;81.98;99451.28;4995867;28;20041;-64
2022/01/31 04:46:49;;;;;;;10.05;4.20;;;;;;;4.54;81.20;99448.72;4995892;28;20042;-63
2022/01/31 04:49:19;;;;;;;8.50;4.15;;;;;;;4.54;81.84;99447.84;4995756;28;20042;-64
2022/01/31 04:51:48;;;;;;;10.77;4.15;;;;;;;4.55;81.43;99457.28;4978954;28;20047;-65
2022/01/31 04:54:14;;;;;;;11.95;4.80;;;;;;;4.56;81.36;99459.91;4994336;28;20482;-64
2022/01/31 04:56:43;;;;;;;6.97;3.78;;;;;;;4.56;81.22;99457.34;4978138;28;20039;-64
2022/01/31 04:59:11;;;;;;;9.15;4.15;;;;;;;4.57;81.40;99453.97;4995567;28;20486;-64
2022/01/31 05:01:39;;;;;;;8.75;4.75;;;;;;;4.55;81.80;99455.59;4995346;28;20046;-64
2022/01/31 05:04:05;;;;;;;12.27;4.45;;;;;;;4.55;81.32;99450.47;4994504;28;20046;-64
2022/01/31 05:06:35;;;;;;;12.13;4.43;;;;;;;4.55;81.11;99459.84;4995443;28;20038;-64
2022/01/31 05:09:03;;;;;;;10.93;4.53;;;;;;;4.57;81.69;99455.63;4995301;28;20069;-64
2022/01/31 05:11:32;;;;;;;8.27;5.13;;;;;;;4.56;81.72;99449.66;4994268;28;20092;-64
2022/01/31 05:13:57;;;;;;;10.38;4.63;;;;;;;4.58;81.26;99457.38;4994371;28;20034;-64
2022/01/31 05:16:23;;;;;;;10.93;4.20;;;;;;;4.58;81.56;99444.56;4995415;28;20077;-64
2022/01/31 05:18:49;;;;;;;11.60;4.38;;;;;;;4.59;81.08;99440.31;4993616;28;20046;-64
2022/01/31 05:21:14;;;;;;;7.80;3.75;;;;;;;4.59;81.08;99442.88;4993827;28;20053;-64
2022/01/31 05:23:40;;;;;;;9.82;4.18;;;;;;;4.56;81.51;99426.56;4994968;28;20038;-64
2022/01/31 05:26:05;;;;;;;12.15;4.00;;;;;;;4.57;81.43;99438.56;4993975;28;20030;-64
2022/01/31 05:28:32;;;;;;;10.00;4.30;;;;;;;4.56;81.37;99428.22;4994986;28;20045;-64
2022/01/31 05:31:00;;;;;;;11.95;4.43;;;;;;;4.57;81.50;99429.97;4993733;28;20045;-64
2022/01/31 05:33:25;;;;;;;10.30;5.03;;;;;;;4.55;81.26;99432.50;4994188;28;20068;-64
2022/01/31 05:35:52;;;;;;;11.93;4.30;;;;;;;4.56;80.94;99435.94;4994677;28;20432;-64
2022/01/31 05:38:18;;;;;;;12.73;4.55;;;;;;;4.55;81.72;99434.19;4977693;28;20069;-65
2022/01/31 05:40:43;;;;;;;14.13;5.10;;;;;;;4.56;81.23;99438.50;4994805;28;20199;-64
2022/01/31 05:43:09;;;;;;;11.68;4.63;;;;;;;4.54;81.64;99424.75;4994749;28;20034;-64
2022/01/31 05:45:35;;;;;;;7.40;3.17;;;;;;;4.56;80.74;99429.13;4994639;28;20038;-64
2022/01/31 05:48:00;;;;;;;8.57;3.85;;;;;;;4.55;81.16;99434.19;4994379;28;20041;-63
2022/01/31 05:50:26;;;;;;;15.68;4.13;;;;;;;4.56;81.60;99423.97;4994837;28;20053;-63
2022/01/31 05:52:51;;;;;;;14.38;4.15;;;;;;;4.55;80.94;99419.66;4993738;28;20088;-63
2022/01/31 05:55:17;;;;;;;14.23;5.40;;;;;;;4.55;81.23;99416.22;4994768;28;20113;-63
2022/01/31 05:57:45;;;;;;;13.23;3.83;;;;;;;4.52;81.28;99417.00;4994261;28;20046;-63
2022/01/31 06:00:14;;;;;;;10.00;3.78;;;;;;;4.54;81.70;99410.22;4994191;28;20030;-64
2022/01/31 06:02:40;;;;;;;9.88;4.22;;;;;;;4.54;81.15;99402.53;4977048;28;20074;-63
2022/01/31 06:05:06;;;;;;;8.57;3.63;;;;;;;4.53;81.29;99395.66;4994385;28;20475;-63
2022/01/31 06:07:32;;;;;;;12.85;4.70;;;;;;;4.52;81.42;99393.03;4976843;28;20116;-63
2022/01/31 06:09:57;;;;;;;12.40;3.75;;;;;;;4.52;81.17;99418.69;4994449;28;20070;-63
2022/01/31 06:12:23;;;;;;;11.68;3.70;;;;;;;4.52;80.93;99387.88;4994330;28;20038;-63
2022/01/31 06:14:49;;;;;;;14.25;5.53;;;;;;;4.51;81.08;99394.72;4994225;28;20073;-63
2022/01/31 06:17:14;;;;;;;10.77;3.58;;;;;;;4.51;81.72;99405.00;4993996;28;20117;-64
2022/01/31 06:19:42;;;;;;;29.42;5.70;;;;;;;4.51;81.26;99410.13;4993100;28;20073;-63
2022/01/31 06:22:07;;;;;;;8.90;3.42;;;;;;;4.53;81.58;99402.47;4994213;28;20445;-63
2022/01/31 06:24:33;;;;;;;10.80;4.20;;;;;;;4.52;81.06;99396.47;4994166;28;20042;-63
2022/01/31 06:26:59;;;;;;;12.50;3.95;;;;;;;4.52;81.32;99404.19;4976663;28;20037;-63
2022/01/31 06:29:27;;;;;;;14.25;3.90;;;;;;;4.51;81.11;99405.00;4994041;28;20038;-63
2022/01/31 06:31:55;;;;;;;13.27;3.75;;;;;;;4.52;81.70;99395.59;4994340;28;20030;-63
2022/01/31 06:34:21;;;;;;;14.10;5.18;;;;;;;4.51;81.16;99394.72;4976675;28;20038;-63
2022/01/31 06:36:49;;;;;;;15.82;5.00;;;;;;;4.51;80.42;99410.13;4994048;28;20398;-63
2022/01/31 06:39:17;;;;;;;16.98;4.57;;;;;;;4.51;81.58;99399.88;4992816;28;20128;-63
2022/01/31 06:41:45;;;;;;;18.83;4.03;;;;;;;4.50;80.99;99398.13;4992885;28;20112;-63
2022/01/31 06:44:11;;;;;;;14.52;4.07;;;;;;;4.51;81.14;99391.31;4993931;28;20070;-63
2022/01/31 06:50:17;;;;;;;12.70;5.63;;;;;;;4.49;81.17;99386.13;4993951;28;20070;-64
2022/01/31 06:52:42;;;;;;;16.40;5.35;;;;;;;4.49;81.10;99396.38;4992487;28;20490;-63
2022/01/31 06:55:09;;;;;;;14.27;4.90;;;;;;;4.46;80.97;99396.28;4994070;28;20042;-63
2022/01/31 06:57:36;;;;;;;13.85;4.82;;;;;;;4.46;80.56;99398.84;4994326;28;20050;-64
2022/01/31 07:00:04;;;;;;;18.10;6.63;;;;;;;4.47;81.12;99385.19;4976480;28;20153;-64
2022/01/31 07:02:30;;;;;;;16.52;5.13;;;;;;;4.47;80.97;99392.03;4992417;28;20066;-64
2022/01/31 07:04:56;;;;;;;20.60;5.22;;;;;;;4.47;80.67;99381.78;4992630;28;20038;-63
2022/01/31 07:07:29;;;;;;;16.25;4.40;;;;;;;4.46;81.06;99390.28;4992552;28;20061;-64
2022/01/31 07:10:00;;;;;;;;;;;;;;;4.48;80.85;99404.03;4977663;28;20045;-64
2022/01/31 07:12:32;;;;;;;17.52;5.45;;;;;;;4.47;81.00;99397.16;4980532;28;19984;-64
2022/01/31 07:14:59;;;;;;;19.25;5.78;;;;;;;4.45;80.58;99404.81;4980173;28;20516;-64
2022/01/31 07:17:24;;;;;;;16.83;4.80;;;;;;;4.49;80.28;99400.66;4996261;28;20387;-63
2022/01/31 07:19:50;;;;;;;13.73;5.13;;;;;;;4.46;80.60;99403.13;4997408;28;20057;-64
2022/01/31 07:22:18;;;;;;;13.95;5.18;;;;;;;4.45;81.38;99394.53;4997702;28;20117;-64
2022/01/31 07:25:00;;;;;;;18.50;5.68;;;;;;;4.45;80.50;99412.50;4980096;28;20402;-64
2022/01/31 07:27:29;;;;;;;19.38;5.18;;;;;;;4.41;80.48;99410.69;4979955;28;20092;-63
2022/01/31 07:29:54;;;;;;;13.82;4.85;;;;;;;4.44;80.42;99404.75;4997231;28;20418;-64
2022/01/31 07:32:22;;;;;;;12.35;4.63;;;;;;;4.44;80.52;99415.03;4996874;28;20042;-64
2022/01/31 07:34:52;;;;;;;18.80;5.40;;;;;;;4.42;80.55;99410.72;4979897;28;20515;-63
2022/01/31 07:37:19;;;;;;;15.35;4.28;;;;;;;4.43;80.84;99416.75;4995686;28;20069;-64
2022/01/31 07:39:45;;;;;;;17.35;4.00;;;;;;;4.42;81.02;99420.97;4979968;28;20046;-63
2022/01/31 07:42:11;;;;;;;11.95;4.70;;;;;;;4.42;80.68;99428.69;4979612;28;20038;-64
2022/01/31 07:44:37;;;;;;;14.68;4.90;;;;;;;4.44;80.65;99420.16;4995730;28;20044;-64
2022/01/31 07:47:06;;;;;;;12.93;4.28;;;;;;;4.42;80.92;99423.56;4997074;28;20043;-64
2022/01/31 07:49:32;;;;;;;14.82;5.40;;;;;;;4.42;80.48;99420.97;4997080;28;20041;-64
2022/01/31 07:52:02;;;;;;;14.23;5.30;;;;;;;4.44;80.75;99423.59;4979404;28;20037;-64
2022/01/31 07:54:28;;;;;;;17.15;5.68;;;;;;;4.42;80.94;99420.97;4979684;28;20062;-64
2022/01/31 07:56:56;;;;;;;21.98;6.80;;;;;;;4.42;81.36;99426.13;4996751;28;20489;-63
2022/01/31 07:59:21;;;;;;;20.88;6.80;;;;;;;4.41;80.20;99444.03;4996590;28;20031;-64
2022/01/31 08:01:53;;;;;;;15.48;6.50;;;;;;;4.42;80.96;99422.69;4995245;28;20505;-64
2022/01/31 08:04:18;;;;;;;24.25;7.53;;;;;;;4.43;80.57;99437.25;4996476;28;20062;-64
2022/01/31 08:06:46;;;;;;;23.38;6.93;;;;;;;4.42;80.99;99438.94;4996590;28;20046;-63
2022/01/31 08:09:14;;;;;;;17.13;6.07;;;;;;;4.39;80.55;99445.69;4996500;28;20486;-64
2022/01/31 08:11:39;;;;;;;21.02;6.70;;;;;;;4.41;80.54;99433.78;4995358;28;20038;-63
2022/01/31 08:14:07;;;;;;;16.95;6.15;;;;;;;4.42;80.76;99443.22;4996376;28;20038;-63
2022/01/31 08:16:34;;;;;;;17.80;6.00;;;;;;;4.41;80.30;99455.16;4995264;28;20062;-64
2022/01/31 08:19:02;;;;;;;22.40;6.60;;;;;;;4.42;80.15;99441.50;4995035;28;20038;-63
2022/01/31 08:21:27;;;;;;;21.48;8.43;;;;;;;4.39;80.97;99449.09;4978516;28;20092;-63
2022/01/31 08:23:56;;;;;;;21.35;5.70;;;;;;;4.42;80.81;99463.75;4996171;28;20445;-63
2022/01/31 08:26:26;;;;;;;16.20;4.78;;;;;;;4.40;80.59;99447.44;4995018;28;20031;-63
2022/01/31 08:29:16;;;;;;;21.67;5.97;;;;;;;4.40;80.92;99457.69;4996156;28;20026;-64
2022/01/31 08:31:42;;;;;;;12.88;5.65;;;;;;;4.40;80.81;99467.97;4979187;28;20137;-64
2022/01/31 08:36:39;;;;;;;20.63;6.35;;;;;;;4.37;80.58;99484.09;4994995;28;20038;-63
2022/01/31 08:39:09;;;;;;;14.38;5.18;;;;;;;4.36;80.27;99484.94;4996127;28;20034;-64
2022/01/31 08:41:37;;;;;;;19.85;6.40;;;;;;;4.36;80.32;99478.94;4978750;28;20081;-64
2022/01/31 08:44:04;;;;;;;15.02;4.93;;;;;;;4.36;80.72;99471.25;4978488;28;20034;-63
2022/01/31 08:46:30;;;;;;;16.77;5.43;;;;;;;4.37;80.62;99475.56;4994688;28;20038;-64
2022/01/31 08:48:55;;;;;;;15.52;4.95;;;;;;;4.38;81.01;99479.88;4996018;28;20041;-63
2022/01/31 08:51:22;;;;;;;13.13;5.05;;;;;;;4.37;80.62;99472.97;4995834;28;20045;-63
2022/01/31 08:53:48;;;;;;;14.32;5.72;;;;;;;4.35;80.46;99466.94;4995610;28;20418;-64
2022/01/31 08:56:14;;;;;;;22.25;5.47;;;;;;;4.35;80.91;99472.06;4994758;28;20035;-63
2022/01/31 08:58:48;;;;;;;14.65;5.07;;;;;;;4.35;81.30;99477.19;4995988;28;20069;-64
2022/01/31 09:01:21;;;;;;;18.58;5.10;;;;;;;4.36;80.81;99484.06;4993912;28;20041;-64
2022/01/31 09:06:25;;;;;;;14.00;5.15;;;;;;;4.35;80.90;99487.44;4995411;28;20048;-63
2022/01/31 09:08:57;;;;;;;17.27;5.47;;;;;;;4.34;80.32;99484.03;4994550;28;20035;-63
2022/01/31 09:11:29;;;;;;;18.63;5.70;;;;;;;4.36;80.37;99489.19;4978355;28;20049;-64
2022/01/31 09:13:55;;;;;;;19.33;5.55;;;;;;;4.34;80.11;99486.59;4994412;28;20030;-64
2022/01/31 09:16:30;;;;;;;22.45;5.47;;;;;;;4.32;80.72;99471.97;4994121;28;20049;-63
2022/01/31 09:18:58;;;;;;;18.13;4.80;;;;;;;4.31;80.51;99478.78;4993959;28;20068;-64
2022/01/31 09:21:37;;;;;;;17.70;5.85;;;;;;;4.32;80.69;99475.41;4995419;28;20039;-64
2022/01/31 09:24:08;;;;;;;16.98;5.05;;;;;;;4.33;80.86;99466.00;4978063;28;20038;-64
2022/01/31 09:26:37;;;;;;;15.70;4.55;;;;;;;4.33;80.72;99476.25;4977613;28;20540;-64
2022/01/31 09:29:12;;;;;;;17.27;4.88;;;;;;;4.32;80.38;99482.22;4994956;28;20039;-64
2022/01/31 09:31:45;;;;;;;20.25;4.65;;;;;;;4.32;80.86;99477.97;4993914;28;20034;-64
2022/01/31 09:34:21;;;;;;;13.35;4.72;;;;;;;4.31;80.34;99476.22;4994353;28;20038;-64
2022/01/31 09:36:52;;;;;;;16.98;5.00;;;;;;;4.32;80.74;99477.09;4995042;28;20030;-64
2022/01/31 09:39:20;;;;;;;17.48;4.80;;;;;;;4.33;80.43;99479.72;4994963;28;20173;-63
2022/01/31 09:41:54;;;;;;;16.40;4.00;;;;;;;4.35;80.68;99490.03;4993622;28;20070;-63
2022/01/31 09:45:02;;;;;;;19.38;5.63;;;;;;;4.32;80.08;99508.75;4994041;28;20034;-63
2022/01/31 09:50:25;;;;;;;17.50;4.20;;;;;;;4.29;80.68;99502.63;4994887;28;20073;-63
2022/01/31 09:52:57;;;;;;;12.98;4.95;;;;;;;4.29;80.85;99489.81;4994912;28;20198;-63
2022/01/31 09:55:30;;;;;;;13.77;4.25;;;;;;;4.30;80.89;99491.56;4994515;28;20054;-63
2022/01/31 09:57:58;;;;;;;17.40;4.35;;;;;;;4.31;80.25;99498.44;4994701;28;20113;-63
2022/01/31 10:00:33;;;;;;;15.63;5.45;;;;;;;4.31;80.60;99501.88;4994478;28;20125;-63
2022/01/31 10:03:11;;;;;;;15.68;5.13;;;;;;;4.31;79.99;99499.31;4977238;28;20521;-63
2022/01/31 10:05:39;;;;;;;17.00;4.90;;;;;;;4.32;80.82;99502.75;4994685;28;20035;-64
2022/01/31 10:08:20;;;;;;;18.17;5.22;;;;;;;4.31;80.10;99508.69;4994516;28;20077;-64
2022/01/31 10:10:55;;;;;;;20.52;6.18;;;;;;;4.30;80.56;99506.94;4994553;28;20034;-63
2022/01/31 10:16:29;;;;;;;20.15;5.05;;;;;;;4.28;80.25;99550.53;4994446;28;20034;-64
2022/01/31 10:19:13;;;;;;;16.45;5.55;;;;;;;4.30;80.13;99551.44;4993013;28;20053;-64
2022/01/31 10:22:09;;;;;;;21.30;4.97;;;;;;;4.29;79.85;99577.94;4993072;28;20030;-64
2022/01/31 10:24:42;;;;;;;15.48;5.97;;;;;;;4.29;80.85;99585.63;4993246;28;20093;-63
2022/01/31 10:27:29;;;;;;;24.15;6.40;;;;;;;4.29;80.01;99575.38;4993036;28;20042;-63
2022/01/31 10:30:17;;;;;;;15.18;5.75;;;;;;;4.23;80.09;99604.25;4994136;28;20553;-63
2022/01/31 10:32:56;;;;;;;14.02;5.43;;;;;;;4.18;80.38;99592.09;4977040;28;20453;-64
2022/01/31 10:35:34;;;;;;;14.88;4.93;;;;;;;4.21;80.73;99579.34;4977268;28;20034;-63
2022/01/31 10:38:12;;;;;;;15.55;4.50;;;;;;;4.21;80.72;99579.34;4976752;28;20069;-63
2022/01/31 10:44:30;;;;;;;29.83;5.78;;;;;;;4.20;80.69;99601.56;4994028;28;20038;-64
2022/01/31 10:52:35;;;;;;;21.35;5.70;;;;;;;4.21;80.98;99589.59;4997869;28;20401;-63
2022/01/31 10:55:26;;;;;;;19.85;5.60;;;;;;;4.23;80.87;99587.97;4997891;28;20406;-63
2022/01/31 10:58:10;;;;;;;20.35;4.80;;;;;;;4.23;80.79;99588.84;4996565;28;20496;-64
2022/01/31 11:00:47;;;;;;;20.67;5.35;;;;;;;4.22;80.63;99591.34;4997785;28;20053;-63
2022/01/31 11:03:48;;;;;;;18.70;5.10;;;;;;;4.20;80.95;99568.22;4997313;28;20058;-63
2022/01/31 11:06:23;;;;;;;27.92;5.90;;;;;;;4.23;80.79;99582.84;4997515;28;20040;-63
2022/01/31 11:09:09;;;;;;;18.92;6.13;;;;;;;4.22;80.52;99571.72;4996611;28;20038;-63
2022/01/31 11:11:49;;;;;;;20.73;5.50;;;;;;;4.19;80.42;99584.44;4996553;28;20070;-64
2022/01/31 11:14:20;;;;;;;20.13;5.90;;;;;;;4.22;80.74;99573.41;4996678;28;20046;-64
2022/01/31 11:16:49;;;;;;;23.13;5.40;;;;;;;4.22;80.28;99569.16;4998128;28;20030;-64
2022/01/31 11:19:31;;;;;;;18.67;4.72;;;;;;;4.22;80.09;99578.53;4980081;28;20578;-64
2022/01/31 11:22:07;;;;;;;24.13;7.10;;;;;;;4.22;80.04;99576.84;4996416;28;20042;-64
2022/01/31 11:24:47;;;;;;;18.92;6.03;;;;;;;4.24;80.01;99577.78;4997940;28;20038;-64
2022/01/31 11:27:16;;;;;;;22.27;6.18;;;;;;;4.25;80.64;99576.06;4996131;28;20042;-63
2022/01/31 11:29:45;;;;;;;28.42;4.90;;;;;;;4.28;80.07;99583.88;4980152;28;20034;-63
2022/01/31 11:32:14;;;;;;;26.85;5.07;;;;;;;4.25;80.25;99576.06;4979784;28;20121;-63
2022/01/31 11:34:47;;;;;;;18.85;6.03;;;;;;;4.28;80.67;99599.28;4979755;28;20181;-64
2022/01/31 11:37:25;;;;;;;30.27;6.82;;;;;;;4.29;80.50;99587.31;4996379;28;20042;-63
2022/01/31 11:40:05;;;;;;;16.63;5.07;;;;;;;4.26;79.82;99596.66;4996155;28;20067;-63
2022/01/31 11:42:37;;;;;;;13.82;5.57;;;;;;;4.26;79.96;99596.66;4997207;28;20034;-63
2022/01/31 11:45:10;;;;;;;24.73;5.20;;;;;;;4.23;79.85;99606.81;4995816;28;20183;-63
2022/01/31 11:47:39;;;;;;;22.63;5.85;;;;;;;4.24;80.00;99617.94;4980153;28;20039;-63
2022/01/31 11:50:13;;;;;;;22.50;5.47;;;;;;;4.26;80.40;99624.88;4995663;28;20119;-63
2022/01/31 11:52:51;;;;;;;25.77;6.05;;;;;;;4.23;79.78;99623.88;4996045;28;20042;-63
2022/01/31 11:55:23;;;;;;;13.13;4.13;;;;;;;4.23;80.13;99623.88;4995090;28;20042;-64
2022/01/31 11:57:51;;;;;;;19.27;5.10;;;;;;;4.23;80.41;99629.91;4995116;28;20509;-64
2022/01/31 12:00:29;;;;;;;21.23;5.65;;;;;;;4.24;80.23;99643.59;4979363;28;20149;-64
2022/01/31 12:03:02;;;;;;;25.00;6.40;;;;;;;4.21;79.97;99628.97;4995610;28;20391;-64
2022/01/31 12:05:37;;;;;;;27.15;6.38;;;;;;;4.21;80.06;99621.28;4995714;28;20041;-64
2022/01/31 12:08:25;;;;;;;24.15;6.88;;;;;;;4.20;79.73;99631.50;4996537;28;20038;-64
2022/01/31 12:11:17;;;;;;;22.63;6.32;;;;;;;4.22;80.79;99652.91;4979139;28;20077;-63